Главная страница
METAR-TAF:

METAR-TAF

Аэропорты :

Резольют, Нунавут, Канада

широта: 74-43N, долгота: 094-59W, высота над уровнем моря: 67 м

Текущие метеонаблюдения

Эта сводка был подготовлена 36 минут назад, в 12:00 UTC
Ветер 9 Узел от северно-северо-западный
Температура -34°C
Влажность 67%
Давление 1022 hPa
Видимость: 24.1 км
ясное небо
Ледяные иглы

METAR: CYRB 211200Z 34009KT 15SM IC SKC M34/M38 A3019 RMK FROIN SLP239

Время: 06:36 (12:36 UTC)

Прогноз

Эта сводка был подготовлена 58 минут назад, в 11:38 UTC
Прогноз действительный с 21-го 12 UTC до 22-го 12 UTC
Ветер 8 Узел от северно-северо-западный
Видимость: 10 км
ясное небо
Ледяные иглы

TAF: CYRB 211138Z 2112/2212 34008KT P6SM IC SKC RMK NXT FCST BY 211800Z

Метеонаблюдения и прогнозы для более 4000 аэропортов (сводки METAR и TAF).

Имеющиеся станции представлены на карте желтыми и красными точками.

Чтобы увидеть название станции, наведите на нее мышь.

Затем щелкните, чтобы увидеть метеонаблюдения и метеопрогнозы.

Управление картой: чтобы увеличить масштаб, щелкните зеленые кнопки с черным крестиком; чтобы уменьшить масштаб, щелкните зеленую кнопку с тире; для просмотра соседних карт щелкайте зеленые стрелки.


METAR-TAF: